Wetterdaten: Dienstag, 21.08.2007
Datum Zeit Temp. A. Feuchte A. Luftdruck Regen Wind Richtung Richtung Sonnenschein UV Solar Windben
21.08.2007 00:00 13,0 C 88 % 1006,3 hPa 0,0 mm 0,0 km/h (0 Bft) N 0 0 min 0 UV-I 0 W/m 0,0 km/h (0 Bft)
21.08.2007 00:10 13,0 C 88 % 1006,5 hPa 0,0 mm 0,0 km/h (0 Bft) N 0 0 min 0 UV-I 0 W/m 0,0 km/h (0 Bft)
21.08.2007 00:20 12,9 C 88 % 1006,4 hPa 0,0 mm 0,0 km/h (0 Bft) SO 135 0 min 0 UV-I 0 W/m 3,2 km/h (1 Bft)
21.08.2007 00:30 12,8 C 88 % 1006,4 hPa 0,0 mm 0,0 km/h (0 Bft) SO 135 0 min 0 UV-I 0 W/m 1,6 km/h (1 Bft)
21.08.2007 00:40 12,8 C 87 % 1006,4 hPa 0,0 mm 0,0 km/h (0 Bft) SO 135 0 min 0 UV-I 0 W/m 1,6 km/h (1 Bft)
21.08.2007 00:50 12,7 C 87 % 1006,4 hPa 0,0 mm 0,0 km/h (0 Bft) N 0 0 min 0 UV-I 0 W/m 0,0 km/h (0 Bft)
21.08.2007 01:00 12,7 C 87 % 1006,4 hPa 0,0 mm 0,0 km/h (0 Bft) SO 135 0 min 0 UV-I 0 W/m 1,6 km/h (1 Bft)
21.08.2007 01:10 12,6 C 87 % 1006,4 hPa 0,0 mm 0,0 km/h (0 Bft) SO 135 0 min 0 UV-I 0 W/m 1,6 km/h (1 Bft)
21.08.2007 01:20 12,5 C 87 % 1006,4 hPa 0,0 mm 0,0 km/h (0 Bft) N 0 0 min 0 UV-I 0 W/m 0,0 km/h (0 Bft)
21.08.2007 01:30 12,4 C 88 % 1006,3 hPa 0,0 mm 0,0 km/h (0 Bft) N 0 0 min 0 UV-I 0 W/m 0,0 km/h (0 Bft)
21.08.2007 01:40 12,4 C 88 % 1006,4 hPa 0,0 mm 0,0 km/h (0 Bft) N 0 0 min 0 UV-I 0 W/m 0,0 km/h (0 Bft)
21.08.2007 01:50 12,3 C 88 % 1006,3 hPa 0,0 mm 0,0 km/h (0 Bft) N 0 0 min 0 UV-I 0 W/m 0,0 km/h (0 Bft)
21.08.2007 02:00 12,3 C 88 % 1006,4 hPa 0,0 mm 0,0 km/h (0 Bft) N 0 0 min 0 UV-I 0 W/m 0,0 km/h (0 Bft)
21.08.2007 02:10 12,3 C 89 % 1006,3 hPa 0,0 mm 0,0 km/h (0 Bft) N 0 0 min 0 UV-I 0 W/m 0,0 km/h (0 Bft)
21.08.2007 02:20 12,2 C 89 % 1006,3 hPa 0,0 mm 0,0 km/h (0 Bft) N 0 0 min 0 UV-I 0 W/m 0,0 km/h (0 Bft)
21.08.2007 02:30 12,2 C 89 % 1006,3 hPa 0,0 mm 0,0 km/h (0 Bft) N 0 0 min 0 UV-I 0 W/m 0,0 km/h (0 Bft)
21.08.2007 02:40 12,2 C 89 % 1006,3 hPa 0,0 mm 0,0 km/h (0 Bft) SO 135 0 min 0 UV-I 0 W/m 1,6 km/h (1 Bft)
21.08.2007 02:50 12,2 C 89 % 1006,2 hPa 0,0 mm 0,0 km/h (0 Bft) N 0 0 min 0 UV-I 0 W/m 0,0 km/h (0 Bft)
21.08.2007 03:00 12,2 C 90 % 1006,2 hPa 0,0 mm 0,0 km/h (0 Bft) N 0 0 min 0 UV-I 0 W/m 0,0 km/h (0 Bft)
21.08.2007 03:10 12,3 C 90 % 1006,1 hPa 0,0 mm 0,0 km/h (0 Bft) N 0 0 min 0 UV-I 0 W/m 0,0 km/h (0 Bft)
21.08.2007 03:20 12,3 C 90 % 1006,1 hPa 0,0 mm 0,0 km/h (0 Bft) N 0 0 min 0 UV-I 0 W/m 0,0 km/h (0 Bft)
21.08.2007 03:30 12,3 C 90 % 1006,1 hPa 0,0 mm 0,0 km/h (0 Bft) N 0 0 min 0 UV-I 0 W/m 0,0 km/h (0 Bft)
21.08.2007 03:40 12,3 C 90 % 1006,2 hPa 0,0 mm 0,0 km/h (0 Bft) SO 135 0 min 0 UV-I 0 W/m 1,6 km/h (1 Bft)
21.08.2007 03:50 12,3 C 90 % 1006,2 hPa 0,0 mm 0,0 km/h (0 Bft) N 0 0 min 0 UV-I 0 W/m 0,0 km/h (0 Bft)
21.08.2007 04:00 12,3 C 90 % 1006,2 hPa 0,0 mm 0,0 km/h (0 Bft) SO 135 0 min 0 UV-I 0 W/m 1,6 km/h (1 Bft)
21.08.2007 04:10 12,4 C 90 % 1006,3 hPa 0,0 mm 0,0 km/h (0 Bft) N 0 0 min 0 UV-I 0 W/m 0,0 km/h (0 Bft)
21.08.2007 04:20 12,4 C 90 % 1006,4 hPa 0,0 mm 0,0 km/h (0 Bft) N 0 0 min 0 UV-I 0 W/m 0,0 km/h (0 Bft)
21.08.2007 04:30 12,4 C 90 % 1006,3 hPa 0,0 mm 0,0 km/h (0 Bft) N 0 0 min 0 UV-I 0 W/m 0,0 km/h (0 Bft)
21.08.2007 04:40 12,5 C 90 % 1006,3 hPa 0,0 mm 0,0 km/h (0 Bft) N 0 0 min 0 UV-I 0 W/m 0,0 km/h (0 Bft)
21.08.2007 04:50 12,5 C 90 % 1006,4 hPa 0,0 mm 0,0 km/h (0 Bft) N 0 0 min 0 UV-I 0 W/m 0,0 km/h (0 Bft)
21.08.2007 05:00 12,4 C 90 % 1006,3 hPa 0,0 mm 0,0 km/h (0 Bft) SO 135 0 min 0 UV-I 0 W/m 1,6 km/h (1 Bft)
21.08.2007 05:10 12,4 C 90 % 1006,3 hPa 0,0 mm 0,0 km/h (0 Bft) N 0 0 min 0 UV-I 0 W/m 0,0 km/h (0 Bft)
21.08.2007 05:20 12,4 C 90 % 1006,2 hPa 0,0 mm 0,0 km/h (0 Bft) SO 135 0 min 0 UV-I 0 W/m 1,6 km/h (1 Bft)
21.08.2007 05:30 12,4 C 90 % 1006,1 hPa 0,0 mm 0,0 km/h (0 Bft) N 0 0 min 0 UV-I 0 W/m 0,0 km/h (0 Bft)
21.08.2007 05:40 12,4 C 90 % 1006,1 hPa 0,0 mm 0,0 km/h (0 Bft) N 0 0 min 0 UV-I 0 W/m 0,0 km/h (0 Bft)
21.08.2007 05:50 12,4 C 90 % 1006,2 hPa 0,0 mm 0,0 km/h (0 Bft) SO 135 0 min 0 UV-I 0 W/m 1,6 km/h (1 Bft)
21.08.2007 06:00 12,4 C 90 % 1006,3 hPa 0,0 mm 0,0 km/h (0 Bft) N 0 0 min 0 UV-I 0 W/m 0,0 km/h (0 Bft)
21.08.2007 06:10 12,5 C 90 % 1006,3 hPa 0,0 mm 0,0 km/h (0 Bft) N 0 0 min 0 UV-I 0 W/m 0,0 km/h (0 Bft)
21.08.2007 06:20 12,5 C 90 % 1006,3 hPa 0,0 mm 0,0 km/h (0 Bft) SO 135 0 min 0 UV-I 0 W/m 1,6 km/h (1 Bft)
21.08.2007 06:30 12,6 C 90 % 1006,3 hPa 0,0 mm 0,0 km/h (0 Bft) N 0 0 min 0 UV-I 0 W/m 0,0 km/h (0 Bft)
21.08.2007 06:40 12,6 C 90 % 1006,4 hPa 0,0 mm 0,0 km/h (0 Bft) N 0 0 min 0 UV-I 0 W/m 0,0 km/h (0 Bft)
21.08.2007 06:50 12,6 C 90 % 1006,5 hPa 0,0 mm 0,0 km/h (0 Bft) N 0 0 min 0 UV-I 5 W/m 0,0 km/h (0 Bft)
21.08.2007 07:00 12,7 C 90 % 1006,5 hPa 0,0 mm 0,0 km/h (0 Bft) N 0 0 min 0 UV-I 9 W/m 0,0 km/h (0 Bft)
21.08.2007 07:10 12,7 C 90 % 1006,5 hPa 0,0 mm 0,0 km/h (0 Bft) N 0 0 min 0 UV-I 14 W/m 0,0 km/h (0 Bft)
21.08.2007 07:20 12,8 C 90 % 1006,6 hPa 0,0 mm 0,0 km/h (0 Bft) N 0 0 min 0 UV-I 18 W/m 0,0 km/h (0 Bft)
21.08.2007 07:30 12,8 C 90 % 1006,5 hPa 0,0 mm 0,0 km/h (0 Bft) SO 135 0 min 0 UV-I 25 W/m 1,6 km/h (1 Bft)
21.08.2007 07:40 12,9 C 90 % 1006,5 hPa 0,0 mm 0,0 km/h (0 Bft) SO 135 0 min 0 UV-I 25 W/m 3,2 km/h (1 Bft)
21.08.2007 07:50 13,0 C 90 % 1006,3 hPa 0,0 mm 0,0 km/h (0 Bft) SO 135 0 min 0 UV-I 26 W/m 3,2 km/h (1 Bft)
21.08.2007 08:00 13,1 C 90 % 1006,2 hPa 0,0 mm 1,6 km/h (1 Bft) S 180 0 min 0 UV-I 35 W/m 6,4 km/h (2 Bft)
21.08.2007 08:10 13,2 C 90 % 1006,4 hPa 0,0 mm 1,6 km/h (1 Bft) SW 225 0 min 0 UV-I 49 W/m 4,8 km/h (1 Bft)
21.08.2007 08:20 13,3 C 90 % 1006,3 hPa 0,0 mm 1,6 km/h (1 Bft) SW 225 0 min 0 UV-I 51 W/m 4,8 km/h (1 Bft)
21.08.2007 08:30 13,4 C 90 % 1006,4 hPa 0,0 mm 1,6 km/h (1 Bft) W-SW 247 0 min 0 UV-I 47 W/m 6,4 km/h (2 Bft)
21.08.2007 08:40 13,4 C 89 % 1006,3 hPa 0,0 mm 1,6 km/h (1 Bft) W-SW 247 0 min 0 UV-I 49 W/m 3,2 km/h (1 Bft)
21.08.2007 08:50 13,6 C 89 % 1006,2 hPa 0,0 mm 3,2 km/h (1 Bft) W 270 0 min 0 UV-I 65 W/m 6,4 km/h (2 Bft)
21.08.2007 09:00 13,5 C 90 % 1006,1 hPa 0,0 mm 3,2 km/h (1 Bft) W-SW 247 0 min 0 UV-I 79 W/m 8,0 km/h (2 Bft)
21.08.2007 09:10 13,6 C 90 % 1006,1 hPa 0,0 mm 3,2 km/h (1 Bft) W-SW 247 0 min 0 UV-I 84 W/m 8,0 km/h (2 Bft)
21.08.2007 09:20 13,6 C 90 % 1006,2 hPa 0,0 mm 3,2 km/h (1 Bft) W 270 0 min 0 UV-I 90 W/m 8,0 km/h (2 Bft)
21.08.2007 09:30 13,7 C 90 % 1006,2 hPa 0,0 mm 1,6 km/h (1 Bft) W 270 0 min 1 UV-I 93 W/m 4,8 km/h (1 Bft)
21.08.2007 09:40 13,9 C 90 % 1006,2 hPa 0,0 mm 1,6 km/h (1 Bft) W 270 0 min 1 UV-I 86 W/m 3,2 km/h (1 Bft)
21.08.2007 09:50 14,1 C 90 % 1006,2 hPa 0,0 mm 1,6 km/h (1 Bft) W 270 0 min 1 UV-I 98 W/m 6,4 km/h (2 Bft)
21.08.2007 10:00 14,2 C 89 % 1006,1 hPa 0,0 mm 3,2 km/h (1 Bft) W-SW 247 0 min 1 UV-I 120 W/m 8,0 km/h (2 Bft)
21.08.2007 10:10 14,2 C 89 % 1006,1 hPa 0,0 mm 4,8 km/h (1 Bft) W 270 0 min 1 UV-I 142 W/m 11,3 km/h (2 Bft)
21.08.2007 10:20 14,4 C 89 % 1006,0 hPa 0,0 mm 3,2 km/h (1 Bft) W-SW 247 0 min 1 UV-I 158 W/m 9,7 km/h (2 Bft)
21.08.2007 10:30 14,6 C 88 % 1006,0 hPa 0,0 mm 6,4 km/h (2 Bft) W-SW 247 0 min 1 UV-I 155 W/m 11,3 km/h (2 Bft)
21.08.2007 10:40 14,7 C 88 % 1005,9 hPa 0,0 mm 3,2 km/h (1 Bft) W-SW 247 0 min 1 UV-I 165 W/m 11,3 km/h (2 Bft)
21.08.2007 10:50 14,8 C 87 % 1005,9 hPa 0,0 mm 4,8 km/h (1 Bft) W 270 0 min 1 UV-I 171 W/m 11,3 km/h (2 Bft)
21.08.2007 11:00 14,9 C 88 % 1005,9 hPa 0,0 mm 3,2 km/h (1 Bft) W 270 0 min 1 UV-I 134 W/m 8,0 km/h (2 Bft)
21.08.2007 11:10 15,0 C 87 % 1005,8 hPa 0,0 mm 3,2 km/h (1 Bft) W-SW 247 0 min 1 UV-I 151 W/m 6,4 km/h (2 Bft)
21.08.2007 11:20 15,1 C 87 % 1005,8 hPa 0,0 mm 3,2 km/h (1 Bft) W-SW 247 0 min 1 UV-I 169 W/m 8,0 km/h (2 Bft)
21.08.2007 11:30 15,2 C 86 % 1006,0 hPa 0,0 mm 3,2 km/h (1 Bft) W 270 0 min 1 UV-I 148 W/m 11,3 km/h (2 Bft)
21.08.2007 11:40 15,2 C 88 % 1005,7 hPa 0,0 mm 4,8 km/h (1 Bft) W 270 0 min 1 UV-I 109 W/m 9,7 km/h (2 Bft)
21.08.2007 11:50 15,1 C 89 % 1005,6 hPa 0,3 mm 4,8 km/h (1 Bft) W-SW 247 0 min 1 UV-I 142 W/m 9,7 km/h (2 Bft)
21.08.2007 12:00 15,0 C 90 % 1005,5 hPa 0,0 mm 3,2 km/h (1 Bft) W-SW 247 0 min 1 UV-I 148 W/m 9,7 km/h (2 Bft)
21.08.2007 12:10 15,2 C 90 % 1005,2 hPa 0,0 mm 3,2 km/h (1 Bft) W 270 0 min 1 UV-I 195 W/m 8,0 km/h (2 Bft)
21.08.2007 12:20 15,4 C 90 % 1005,1 hPa 0,0 mm 3,2 km/h (1 Bft) W 270 0 min 1 UV-I 172 W/m 11,3 km/h (2 Bft)
21.08.2007 12:30 15,4 C 90 % 1005,1 hPa 0,3 mm 4,8 km/h (1 Bft) W 270 0 min 1 UV-I 105 W/m 9,7 km/h (2 Bft)
21.08.2007 12:40 15,3 C 91 % 1004,8 hPa 0,3 mm 4,8 km/h (1 Bft) W 270 0 min 1 UV-I 104 W/m 16,1 km/h (3 Bft)
21.08.2007 12:50 15,3 C 92 % 1004,8 hPa 0,3 mm 4,8 km/h (1 Bft) W-SW 247 0 min 1 UV-I 125 W/m 11,3 km/h (2 Bft)
21.08.2007 13:00 15,4 C 92 % 1004,7 hPa 0,3 mm 4,8 km/h (1 Bft) W-SW 247 0 min 1 UV-I 172 W/m 14,5 km/h (3 Bft)
21.08.2007 13:10 15,4 C 92 % 1004,9 hPa 0,3 mm 4,8 km/h (1 Bft) W-SW 247 0 min 1 UV-I 98 W/m 12,9 km/h (3 Bft)
21.08.2007 13:20 15,5 C 92 % 1004,9 hPa 1,8 mm 3,2 km/h (1 Bft) W-SW 247 0 min 1 UV-I 62 W/m 9,7 km/h (2 Bft)
21.08.2007 13:30 15,5 C 93 % 1004,7 hPa 1,5 mm 3,2 km/h (1 Bft) W 270 0 min 1 UV-I 128 W/m 8,0 km/h (2 Bft)
21.08.2007 13:40 15,7 C 93 % 1004,6 hPa 0,3 mm 4,8 km/h (1 Bft) W-SW 247 0 min 1 UV-I 130 W/m 11,3 km/h (2 Bft)
21.08.2007 13:50 15,7 C 93 % 1004,6 hPa 0,0 mm 3,2 km/h (1 Bft) W-SW 247 0 min 1 UV-I 125 W/m 8,0 km/h (2 Bft)
21.08.2007 14:00 15,8 C 93 % 1004,6 hPa 0,0 mm 6,4 km/h (2 Bft) W-SW 247 0 min 2 UV-I 186 W/m 14,5 km/h (3 Bft)
21.08.2007 14:10 16,0 C 93 % 1004,5 hPa 0,0 mm 6,4 km/h (2 Bft) W 270 0 min 1 UV-I 118 W/m 14,5 km/h (3 Bft)
21.08.2007 14:20 16,1 C 93 % 1004,6 hPa 0,0 mm 3,2 km/h (1 Bft) W 270 0 min 1 UV-I 81 W/m 11,3 km/h (2 Bft)
21.08.2007 14:30 16,2 C 93 % 1004,6 hPa 0,0 mm 4,8 km/h (1 Bft) W 270 0 min 1 UV-I 134 W/m 12,9 km/h (3 Bft)
21.08.2007 14:40 16,3 C 93 % 1004,4 hPa 0,3 mm 4,8 km/h (1 Bft) W-SW 247 0 min 1 UV-I 90 W/m 12,9 km/h (3 Bft)
21.08.2007 14:50 16,3 C 93 % 1004,2 hPa 0,0 mm 4,8 km/h (1 Bft) W 270 0 min 1 UV-I 79 W/m 11,3 km/h (2 Bft)
21.08.2007 15:00 16,3 C 93 % 1004,1 hPa 0,3 mm 4,8 km/h (1 Bft) W-SW 247 0 min 1 UV-I 70 W/m 11,3 km/h (2 Bft)
21.08.2007 15:10 16,3 C 93 % 1004,0 hPa 0,3 mm 6,4 km/h (2 Bft) W-SW 247 0 min 1 UV-I 79 W/m 20,9 km/h (4 Bft)
21.08.2007 15:20 16,4 C 93 % 1003,8 hPa 0,0 mm 6,4 km/h (2 Bft) W-SW 247 0 min 1 UV-I 79 W/m 16,1 km/h (3 Bft)
21.08.2007 15:30 16,5 C 93 % 1003,9 hPa 0,3 mm 6,4 km/h (2 Bft) W 270 0 min 1 UV-I 83 W/m 11,3 km/h (2 Bft)
21.08.2007 15:40 16,6 C 93 % 1003,7 hPa 0,3 mm 6,4 km/h (2 Bft) W 270 0 min 1 UV-I 109 W/m 14,5 km/h (3 Bft)
21.08.2007 15:50 16,7 C 93 % 1003,8 hPa 0,0 mm 6,4 km/h (2 Bft) W 270 0 min 1 UV-I 100 W/m 16,1 km/h (3 Bft)
21.08.2007 16:00 16,7 C 93 % 1003,7 hPa 0,3 mm 6,4 km/h (2 Bft) W-SW 247 0 min 1 UV-I 77 W/m 22,5 km/h (4 Bft)
21.08.2007 16:10 16,8 C 93 % 1003,7 hPa 0,3 mm 8,0 km/h (2 Bft) W-SW 247 0 min 0 UV-I 40 W/m 19,3 km/h (3 Bft)
21.08.2007 16:20 16,8 C 93 % 1003,5 hPa 0,5 mm 6,4 km/h (2 Bft) W 270 0 min 1 UV-I 70 W/m 16,1 km/h (3 Bft)
21.08.2007 16:30 16,9 C 93 % 1003,2 hPa 0,5 mm 8,0 km/h (2 Bft) W-SW 247 0 min 1 UV-I 76 W/m 19,3 km/h (3 Bft)
21.08.2007 16:40 17,0 C 93 % 1003,0 hPa 0,3 mm 6,4 km/h (2 Bft) W-SW 247 0 min 0 UV-I 56 W/m 16,1 km/h (3 Bft)
21.08.2007 16:50 17,0 C 93 % 1002,8 hPa 0,5 mm 9,7 km/h (2 Bft) W-SW 247 0 min 0 UV-I 39 W/m 19,3 km/h (3 Bft)
21.08.2007 17:00 17,0 C 93 % 1002,7 hPa 0,5 mm 9,7 km/h (2 Bft) W 270 0 min 0 UV-I 30 W/m 22,5 km/h (4 Bft)
21.08.2007 17:10 17,0 C 93 % 1002,3 hPa 0,5 mm 11,3 km/h (2 Bft) W-SW 247 0 min 0 UV-I 35 W/m 27,4 km/h (4 Bft)
21.08.2007 17:20 16,9 C 93 % 1002,3 hPa 0,5 mm 11,3 km/h (2 Bft) W 270 0 min 0 UV-I 21 W/m 22,5 km/h (4 Bft)
21.08.2007 17:30 16,9 C 93 % 1002,2 hPa 1,3 mm 9,7 km/h (2 Bft) W-SW 247 0 min 0 UV-I 18 W/m 22,5 km/h (4 Bft)
21.08.2007 17:40 16,8 C 93 % 1001,9 hPa 1,5 mm 11,3 km/h (2 Bft) W 270 0 min 0 UV-I 25 W/m 25,7 km/h (4 Bft)
21.08.2007 17:50 16,8 C 93 % 1001,6 hPa 1,3 mm 9,7 km/h (2 Bft) W-SW 247 0 min 0 UV-I 21 W/m 20,9 km/h (4 Bft)
21.08.2007 18:00 16,8 C 93 % 1001,4 hPa 1,8 mm 12,9 km/h (3 Bft) W-SW 247 0 min 0 UV-I 18 W/m 30,6 km/h (5 Bft)
21.08.2007 18:10 16,7 C 93 % 1001,2 hPa 1,5 mm 11,3 km/h (2 Bft) W 270 0 min 0 UV-I 9 W/m 29,0 km/h (5 Bft)
21.08.2007 18:20 16,7 C 93 % 1000,9 hPa 1,8 mm 9,7 km/h (2 Bft) W-SW 247 0 min 0 UV-I 5 W/m 29,0 km/h (5 Bft)
21.08.2007 18:30 16,6 C 93 % 1000,4 hPa 2,5 mm 11,3 km/h (2 Bft) W-SW 247 0 min 0 UV-I 0 W/m 25,7 km/h (4 Bft)
21.08.2007 18:40 16,5 C 93 % 1000,2 hPa 2,5 mm 12,9 km/h (3 Bft) W 270 0 min 0 UV-I 0 W/m 33,8 km/h (5 Bft)
21.08.2007 18:50 16,4 C 93 % 999,9 hPa 2,3 mm 12,9 km/h (3 Bft) W-SW 247 0 min 0 UV-I 5 W/m 27,4 km/h (4 Bft)
21.08.2007 19:00 16,4 C 94 % 999,7 hPa 1,5 mm 12,9 km/h (3 Bft) W-SW 247 0 min 0 UV-I 5 W/m 35,4 km/h (5 Bft)
21.08.2007 19:10 16,4 C 94 % 1000,0 hPa 1,5 mm 12,9 km/h (3 Bft) W-SW 247 0 min 0 UV-I 5 W/m 33,8 km/h (5 Bft)
21.08.2007 19:20 16,5 C 94 % 1000,0 hPa 2,5 mm 11,3 km/h (2 Bft) W 270 0 min 0 UV-I 7 W/m 27,4 km/h (4 Bft)
21.08.2007 19:30 16,6 C 94 % 999,9 hPa 1,3 mm 8,0 km/h (2 Bft) W 270 0 min 0 UV-I 9 W/m 19,3 km/h (3 Bft)
21.08.2007 19:40 16,7 C 94 % 999,9 hPa 0,8 mm 4,8 km/h (1 Bft) W 270 0 min 0 UV-I 0 W/m 14,5 km/h (3 Bft)
21.08.2007 19:50 16,8 C 94 % 999,9 hPa 0,3 mm 3,2 km/h (1 Bft) W 270 0 min 0 UV-I 0 W/m 16,1 km/h (3 Bft)
21.08.2007 20:00 16,9 C 94 % 999,9 hPa 0,5 mm 3,2 km/h (1 Bft) W 279 0 min 0 UV-I 0 W/m 8,0 km/h (2 Bft)
21.08.2007 20:10 16,9 C 94 % 999,9 hPa 0,0 mm 2,6 km/h (1 Bft) W-NW 298 0 min 0 UV-I 0 W/m 6,4 km/h (2 Bft)
21.08.2007 20:20 16,9 C 94 % 999,9 hPa 0,0 mm 0,1 km/h (0 Bft) W-NW 298 0 min 0 UV-I 0 W/m 3,2 km/h (1 Bft)
21.08.2007 20:30 16,9 C 94 % 999,8 hPa 0,0 mm 0,1 km/h (0 Bft) W-NW 298 0 min 0 UV-I 0 W/m 1,6 km/h (1 Bft)
21.08.2007 20:40 16,9 C 94 % 999,8 hPa 0,0 mm 0,8 km/h (0 Bft) NW 313 0 min 0 UV-I 0 W/m 4,8 km/h (1 Bft)
21.08.2007 20:50 16,9 C 94 % 999,8 hPa 0,0 mm 2,4 km/h (1 Bft) N-NO 17 0 min 0 UV-I 0 W/m 8,0 km/h (2 Bft)
21.08.2007 21:00 16,9 C 94 % 1000,0 hPa 0,0 mm 1,6 km/h (1 Bft) N 360 0 min 0 UV-I 0 W/m 8,0 km/h (2 Bft)
21.08.2007 21:20 17,0 C 94 % 999,9 hPa 0,0 mm 0,4 km/h (0 Bft) N 11 0 min 0 UV-I 0 W/m 3,2 km/h (1 Bft)
21.08.2007 21:30 17,0 C 94 % 999,9 hPa 0,0 mm 1,2 km/h (1 Bft) N-NW 342 0 min 0 UV-I 0 W/m 4,8 km/h (1 Bft)
21.08.2007 21:40 17,1 C 94 % 999,9 hPa 0,0 mm 1,7 km/h (1 Bft) N-NW 329 0 min 0 UV-I 0 W/m 6,4 km/h (2 Bft)
21.08.2007 21:50 17,1 C 94 % 999,8 hPa 0,0 mm 0,5 km/h (0 Bft) NW 326 0 min 0 UV-I 0 W/m 3,2 km/h (1 Bft)
21.08.2007 22:00 17,0 C 94 % 999,8 hPa 0,5 mm 0,5 km/h (0 Bft) NW 326 0 min 0 UV-I 0 W/m 3,2 km/h (1 Bft)
21.08.2007 22:10 17,0 C 94 % 999,7 hPa 1,0 mm 0,4 km/h (0 Bft) NW 326 0 min 0 UV-I 0 W/m 3,2 km/h (1 Bft)
21.08.2007 22:20 17,0 C 94 % 999,8 hPa 0,0 mm 1,2 km/h (1 Bft) NW 317 0 min 0 UV-I 0 W/m 3,2 km/h (1 Bft)
21.08.2007 22:30 16,9 C 94 % 999,6 hPa 0,0 mm 1,2 km/h (1 Bft) N-NW 338 0 min 0 UV-I 0 W/m 6,4 km/h (2 Bft)
21.08.2007 22:40 16,9 C 94 % 999,6 hPa 0,0 mm 2,1 km/h (1 Bft) W-NW 291 0 min 0 UV-I 0 W/m 4,8 km/h (1 Bft)
21.08.2007 22:50 16,9 C 94 % 999,6 hPa 0,0 mm 0,9 km/h (0 Bft) W-NW 291 0 min 0 UV-I 0 W/m 3,2 km/h (1 Bft)
21.08.2007 23:00 16,8 C 94 % 999,5 hPa 0,0 mm 1,5 km/h (1 Bft) W 276 0 min 0 UV-I 0 W/m 4,8 km/h (1 Bft)
21.08.2007 23:10 16,8 C 94 % 999,5 hPa 0,0 mm 1,4 km/h (1 Bft) W 276 0 min 0 UV-I 0 W/m 3,2 km/h (1 Bft)
21.08.2007 23:20 16,8 C 94 % 999,5 hPa 0,0 mm 1,8 km/h (1 Bft) W 275 0 min 0 UV-I 0 W/m 4,8 km/h (1 Bft)
21.08.2007 23:30 16,8 C 94 % 999,5 hPa 0,0 mm 2,4 km/h (1 Bft) W-NW 283 0 min 0 UV-I 0 W/m 8,0 km/h (2 Bft)
21.08.2007 23:40 16,8 C 94 % 999,3 hPa 0,0 mm 2,1 km/h (1 Bft) NW 315 0 min 0 UV-I 0 W/m 8,0 km/h (2 Bft)
21.08.2007 23:50 16,8 C 94 % 999,5 hPa 0,0 mm 1,2 km/h (1 Bft) N 350 0 min 0 UV-I 0 W/m 6,4 km/h (2 Bft)
_ Min-Zeit 02:10 11:30 23:40 - 00:00 - - - - - 00:00
Minimum _ 12,2 C 86 % 999,3 hPa - 0,0 km/h (0 Bft) - - - - - 0,0 km/h (0 Bft)
_ Max-Zeit 21:30 19:00 07:20 18:30 18:00 - - 00:00 14:00 12:10 19:00
Maximum _ 17,1 C 94 % 1006,6 hPa 2,5 mm 12,9 km/h
W-SW (3 Bft)
- - 0 min 2 UV-I 195 W/m 35,4 km/h
N (5 Bft)
Durchschnitt _ 14,8 C 91 % 1004,1 hPa #36,6 mm 3,2 km/h (1 Bft) W-SW - #0 min. 1 UV-I 81 W/m 8,4 km/h (2 Bft)